sensor_id;sensor_type;location;lat;lon;timestamp;pressure;altitude;pressure_sealevel;temperature;humidity
64616;BME280;51027;42.162;24.754;2023-04-25T00:01:38;99015.16;;;12.94;100.00
64616;BME280;51027;42.162;24.754;2023-04-25T00:04:03;99009.97;;;12.92;100.00
64616;BME280;51027;42.162;24.754;2023-04-25T00:06:34;98997.09;;;12.72;100.00
64616;BME280;51027;42.162;24.754;2023-04-25T00:09:02;99000.13;;;12.80;100.00
64616;BME280;51027;42.162;24.754;2023-04-25T00:11:28;98998.16;;;12.84;100.00
64616;BME280;51027;42.162;24.754;2023-04-25T00:13:56;98993.34;;;12.90;100.00
64616;BME280;51027;42.162;24.754;2023-04-25T00:16:22;98988.06;;;12.90;100.00
64616;BME280;51027;42.162;24.754;2023-04-25T00:18:49;98989.06;;;12.74;100.00
64616;BME280;51027;42.162;24.754;2023-04-25T00:21:17;98992.31;;;12.79;100.00
64616;BME280;51027;42.162;24.754;2023-04-25T00:23:43;98989.13;;;12.88;100.00
64616;BME280;51027;42.162;24.754;2023-04-25T00:26:08;98994.97;;;12.93;100.00
64616;BME280;51027;42.162;24.754;2023-04-25T00:28:34;98992.66;;;12.87;100.00
64616;BME280;51027;42.162;24.754;2023-04-25T00:30:59;98985.88;;;12.97;100.00
64616;BME280;51027;42.162;24.754;2023-04-25T00:33:25;98974.84;;;12.90;100.00
64616;BME280;51027;42.162;24.754;2023-04-25T00:35:50;98975.16;;;13.00;100.00
64616;BME280;51027;42.162;24.754;2023-04-25T00:38:16;98978.16;;;12.94;100.00
64616;BME280;51027;42.162;24.754;2023-04-25T00:40:41;98970.31;;;12.92;100.00
64616;BME280;51027;42.162;24.754;2023-04-25T00:43:08;98972.22;;;12.90;100.00
64616;BME280;51027;42.162;24.754;2023-04-25T00:45:38;98973.91;;;12.91;100.00
64616;BME280;51027;42.162;24.754;2023-04-25T00:48:04;98973.41;;;12.85;100.00
64616;BME280;51027;42.162;24.754;2023-04-25T00:50:30;98972.75;;;12.81;100.00
64616;BME280;51027;42.162;24.754;2023-04-25T00:52:56;98980.13;;;12.90;100.00
64616;BME280;51027;42.162;24.754;2023-04-25T00:55:21;98954.81;;;12.86;100.00
64616;BME280;51027;42.162;24.754;2023-04-25T00:57:47;98985.72;;;13.00;100.00
64616;BME280;51027;42.162;24.754;2023-04-25T01:00:13;98982.22;;;13.00;100.00
64616;BME280;51027;42.162;24.754;2023-04-25T01:02:40;98984.84;;;12.85;100.00
64616;BME280;51027;42.162;24.754;2023-04-25T01:05:07;98986.28;;;12.91;100.00
64616;BME280;51027;42.162;24.754;2023-04-25T01:07:33;98975.31;;;12.97;100.00
64616;BME280;51027;42.162;24.754;2023-04-25T01:09:59;98969.97;;;12.98;100.00
64616;BME280;51027;42.162;24.754;2023-04-25T01:12:24;98956.06;;;12.95;100.00
64616;BME280;51027;42.162;24.754;2023-04-25T01:14:50;98929.91;;;12.76;100.00
64616;BME280;51027;42.162;24.754;2023-04-25T01:17:16;98980.25;;;13.03;100.00
64616;BME280;51027;42.162;24.754;2023-04-25T01:19:42;98979.28;;;12.90;100.00
64616;BME280;51027;42.162;24.754;2023-04-25T01:22:08;98993.09;;;13.09;100.00
64616;BME280;51027;42.162;24.754;2023-04-25T01:24:35;98984.59;;;13.04;100.00
64616;BME280;51027;42.162;24.754;2023-04-25T01:27:02;98984.31;;;13.09;100.00
64616;BME280;51027;42.162;24.754;2023-04-25T01:29:28;98986.38;;;13.04;100.00
64616;BME280;51027;42.162;24.754;2023-04-25T01:31:54;98984.78;;;13.01;100.00
64616;BME280;51027;42.162;24.754;2023-04-25T01:34:20;98981.84;;;13.06;100.00
64616;BME280;51027;42.162;24.754;2023-04-25T01:36:49;98972.41;;;13.02;100.00
64616;BME280;51027;42.162;24.754;2023-04-25T01:39:15;98965.63;;;12.97;100.00
64616;BME280;51027;42.162;24.754;2023-04-25T01:41:41;98972.59;;;12.98;100.00
64616;BME280;51027;42.162;24.754;2023-04-25T01:44:06;98969.03;;;13.00;100.00
64616;BME280;51027;42.162;24.754;2023-04-25T01:46:33;98961.53;;;12.92;100.00
64616;BME280;51027;42.162;24.754;2023-04-25T01:48:59;98965.88;;;12.93;100.00
64616;BME280;51027;42.162;24.754;2023-04-25T01:51:24;98955.22;;;12.94;100.00
64616;BME280;51027;42.162;24.754;2023-04-25T01:53:50;98962.50;;;13.05;100.00
64616;BME280;51027;42.162;24.754;2023-04-25T01:56:17;98956.00;;;13.11;100.00
64616;BME280;51027;42.162;24.754;2023-04-25T01:58:43;98960.88;;;13.17;100.00
64616;BME280;51027;42.162;24.754;2023-04-25T02:01:08;98959.91;;;13.19;100.00
64616;BME280;51027;42.162;24.754;2023-04-25T02:03:34;98956.75;;;12.98;100.00
64616;BME280;51027;42.162;24.754;2023-04-25T02:05:59;98952.22;;;13.01;100.00
64616;BME280;51027;42.162;24.754;2023-04-25T02:08:25;98964.28;;;13.05;100.00
64616;BME280;51027;42.162;24.754;2023-04-25T02:10:51;98955.25;;;13.09;100.00
64616;BME280;51027;42.162;24.754;2023-04-25T02:13:17;98957.75;;;12.96;100.00
64616;BME280;51027;42.162;24.754;2023-04-25T02:15:43;98960.69;;;12.91;100.00
64616;BME280;51027;42.162;24.754;2023-04-25T02:18:08;98963.53;;;12.88;100.00
64616;BME280;51027;42.162;24.754;2023-04-25T02:20:35;98956.16;;;12.93;100.00
64616;BME280;51027;42.162;24.754;2023-04-25T02:23:01;98952.22;;;13.01;100.00
64616;BME280;51027;42.162;24.754;2023-04-25T02:25:27;98943.03;;;12.92;100.00
64616;BME280;51027;42.162;24.754;2023-04-25T02:27:52;98953.25;;;12.98;100.00
64616;BME280;51027;42.162;24.754;2023-04-25T02:30:19;98948.44;;;12.90;100.00
64616;BME280;51027;42.162;24.754;2023-04-25T02:32:44;98957.03;;;12.50;100.00
64616;BME280;51027;42.162;24.754;2023-04-25T02:35:10;98961.63;;;12.46;100.00
64616;BME280;51027;42.162;24.754;2023-04-25T02:37:39;98959.66;;;12.50;100.00
64616;BME280;51027;42.162;24.754;2023-04-25T02:40:05;98931.59;;;12.33;100.00
64616;BME280;51027;42.162;24.754;2023-04-25T02:42:32;98942.56;;;12.41;100.00
64616;BME280;51027;42.162;24.754;2023-04-25T02:44:57;98949.66;;;12.55;100.00
64616;BME280;51027;42.162;24.754;2023-04-25T02:47:23;98949.88;;;12.66;100.00
64616;BME280;51027;42.162;24.754;2023-04-25T02:49:48;98953.00;;;12.58;100.00
64616;BME280;51027;42.162;24.754;2023-04-25T02:52:14;98946.88;;;12.72;100.00
64616;BME280;51027;42.162;24.754;2023-04-25T02:54:40;98953.44;;;12.51;100.00
64616;BME280;51027;42.162;24.754;2023-04-25T02:57:06;98961.41;;;12.65;100.00
64616;BME280;51027;42.162;24.754;2023-04-25T02:59:31;98967.22;;;12.56;100.00
64616;BME280;51027;42.162;24.754;2023-04-25T03:01:57;98966.31;;;12.57;100.00
64616;BME280;51027;42.162;24.754;2023-04-25T03:04:22;98963.66;;;12.57;100.00
64616;BME280;51027;42.162;24.754;2023-04-25T03:06:51;98948.91;;;12.53;100.00
64616;BME280;51027;42.162;24.754;2023-04-25T03:09:17;98957.78;;;12.22;100.00
64616;BME280;51027;42.162;24.754;2023-04-25T03:11:43;98948.34;;;12.18;100.00
64616;BME280;51027;42.162;24.754;2023-04-25T03:14:09;98963.69;;;12.41;100.00
64616;BME280;51027;42.162;24.754;2023-04-25T03:16:35;98958.31;;;12.43;100.00
64616;BME280;51027;42.162;24.754;2023-04-25T03:19:00;98952.28;;;12.40;100.00
64616;BME280;51027;42.162;24.754;2023-04-25T03:21:26;98950.72;;;12.52;100.00
64616;BME280;51027;42.162;24.754;2023-04-25T03:23:51;98959.94;;;12.45;100.00
64616;BME280;51027;42.162;24.754;2023-04-25T03:26:17;98944.78;;;12.49;100.00
64616;BME280;51027;42.162;24.754;2023-04-25T03:28:42;98963.66;;;12.57;100.00
64616;BME280;51027;42.162;24.754;2023-04-25T03:31:08;98949.09;;;12.50;100.00
64616;BME280;51027;42.162;24.754;2023-04-25T03:33:33;98957.75;;;12.67;100.00
64616;BME280;51027;42.162;24.754;2023-04-25T03:35:58;98962.44;;;12.77;100.00
64616;BME280;51027;42.162;24.754;2023-04-25T03:38:24;98950.66;;;12.68;100.00
64616;BME280;51027;42.162;24.754;2023-04-25T03:40:50;98951.22;;;12.73;100.00
64616;BME280;51027;42.162;24.754;2023-04-25T03:43:16;98927.44;;;12.73;100.00
64616;BME280;51027;42.162;24.754;2023-04-25T03:45:41;98932.09;;;12.84;100.00
64616;BME280;51027;42.162;24.754;2023-04-25T03:48:07;98930.69;;;12.78;100.00
64616;BME280;51027;42.162;24.754;2023-04-25T03:50:32;98932.53;;;12.76;100.00
64616;BME280;51027;42.162;24.754;2023-04-25T03:52:58;98920.97;;;12.79;100.00
64616;BME280;51027;42.162;24.754;2023-04-25T03:55:23;98917.72;;;12.74;100.00
64616;BME280;51027;42.162;24.754;2023-04-25T03:57:48;98935.22;;;12.90;100.00
64616;BME280;51027;42.162;24.754;2023-04-25T04:00:15;98937.00;;;13.04;100.00
64616;BME280;51027;42.162;24.754;2023-04-25T04:02:41;98932.47;;;13.06;100.00
64616;BME280;51027;42.162;24.754;2023-04-25T04:05:06;98926.22;;;13.07;100.00
64616;BME280;51027;42.162;24.754;2023-04-25T04:07:32;98924.09;;;13.00;100.00
64616;BME280;51027;42.162;24.754;2023-04-25T04:09:58;98923.59;;;12.93;100.00
64616;BME280;51027;42.162;24.754;2023-04-25T04:12:24;98932.00;;;13.00;100.00
64616;BME280;51027;42.162;24.754;2023-04-25T04:14:49;98930.50;;;13.10;100.00
64616;BME280;51027;42.162;24.754;2023-04-25T04:17:15;98927.88;;;13.24;100.00
64616;BME280;51027;42.162;24.754;2023-04-25T04:19:41;98922.16;;;13.16;100.00
64616;BME280;51027;42.162;24.754;2023-04-25T04:22:06;98934.22;;;13.21;100.00
64616;BME280;51027;42.162;24.754;2023-04-25T04:24:31;98939.38;;;13.37;100.00
64616;BME280;51027;42.162;24.754;2023-04-25T04:26:57;98937.47;;;13.53;100.00
64616;BME280;51027;42.162;24.754;2023-04-25T04:29:24;98941.44;;;13.61;100.00
64616;BME280;51027;42.162;24.754;2023-04-25T04:31:50;98940.09;;;13.68;100.00
64616;BME280;51027;42.162;24.754;2023-04-25T04:34:19;98939.06;;;13.70;100.00
64616;BME280;51027;42.162;24.754;2023-04-25T04:36:45;98927.41;;;13.73;100.00
64616;BME280;51027;42.162;24.754;2023-04-25T04:39:12;98940.66;;;13.73;100.00
64616;BME280;51027;42.162;24.754;2023-04-25T04:41:38;98944.34;;;13.70;100.00
64616;BME280;51027;42.162;24.754;2023-04-25T04:44:04;98914.97;;;13.61;100.00
64616;BME280;51027;42.162;24.754;2023-04-25T04:46:32;98944.94;;;13.88;100.00
64616;BME280;51027;42.162;24.754;2023-04-25T04:49:04;98933.06;;;13.81;100.00
64616;BME280;51027;42.162;24.754;2023-04-25T04:51:29;98935.91;;;13.78;100.00
64616;BME280;51027;42.162;24.754;2023-04-25T04:53:56;98923.47;;;13.66;100.00
64616;BME280;51027;42.162;24.754;2023-04-25T04:56:24;98953.56;;;13.77;100.00
64616;BME280;51027;42.162;24.754;2023-04-25T04:58:50;98932.13;;;13.68;100.00
64616;BME280;51027;42.162;24.754;2023-04-25T05:01:16;98939.22;;;13.67;100.00
64616;BME280;51027;42.162;24.754;2023-04-25T05:03:41;98939.38;;;13.78;100.00
64616;BME280;51027;42.162;24.754;2023-04-25T05:06:07;98947.06;;;13.83;100.00
64616;BME280;51027;42.162;24.754;2023-04-25T05:08:34;98955.53;;;13.88;100.00
64616;BME280;51027;42.162;24.754;2023-04-25T05:10:59;98948.16;;;13.93;100.00
64616;BME280;51027;42.162;24.754;2023-04-25T05:13:25;98949.22;;;13.91;100.00
64616;BME280;51027;42.162;24.754;2023-04-25T05:15:50;98944.88;;;13.90;100.00
64616;BME280;51027;42.162;24.754;2023-04-25T05:18:15;98941.91;;;13.94;100.00
64616;BME280;51027;42.162;24.754;2023-04-25T05:20:41;98931.72;;;13.88;100.00
64616;BME280;51027;42.162;24.754;2023-04-25T05:23:06;98939.78;;;13.99;100.00
64616;BME280;51027;42.162;24.754;2023-04-25T05:25:32;98950.31;;;14.01;100.00
64616;BME280;51027;42.162;24.754;2023-04-25T05:27:57;98933.38;;;14.03;100.00
64616;BME280;51027;42.162;24.754;2023-04-25T05:30:23;98951.25;;;14.00;100.00
64616;BME280;51027;42.162;24.754;2023-04-25T05:32:48;98945.03;;;14.01;100.00
64616;BME280;51027;42.162;24.754;2023-04-25T05:35:14;98946.25;;;13.95;100.00
64616;BME280;51027;42.162;24.754;2023-04-25T05:37:39;98949.47;;;14.00;100.00
64616;BME280;51027;42.162;24.754;2023-04-25T05:40:06;98953.25;;;13.96;100.00
64616;BME280;51027;42.162;24.754;2023-04-25T05:42:32;98898.56;;;13.82;100.00
64616;BME280;51027;42.162;24.754;2023-04-25T05:44:57;98943.47;;;14.11;100.00
64616;BME280;51027;42.162;24.754;2023-04-25T05:47:23;98941.78;;;14.10;100.00
64616;BME280;51027;42.162;24.754;2023-04-25T05:49:48;98928.31;;;14.13;100.00
64616;BME280;51027;42.162;24.754;2023-04-25T05:52:14;98931.81;;;14.13;100.00
64616;BME280;51027;42.162;24.754;2023-04-25T05:54:40;98949.78;;;14.08;100.00
64616;BME280;51027;42.162;24.754;2023-04-25T05:57:06;98943.16;;;14.16;100.00
64616;BME280;51027;42.162;24.754;2023-04-25T05:59:31;98941.13;;;14.19;100.00
64616;BME280;51027;42.162;24.754;2023-04-25T06:01:57;98946.28;;;14.35;100.00
64616;BME280;51027;42.162;24.754;2023-04-25T06:04:22;98939.81;;;14.39;100.00
64616;BME280;51027;42.162;24.754;2023-04-25T06:06:48;98942.34;;;14.55;100.00
64616;BME280;51027;42.162;24.754;2023-04-25T06:09:13;98938.97;;;14.65;100.00
64616;BME280;51027;42.162;24.754;2023-04-25T06:11:39;98932.38;;;14.71;100.00
64616;BME280;51027;42.162;24.754;2023-04-25T06:14:05;98935.56;;;14.89;100.00
64616;BME280;51027;42.162;24.754;2023-04-25T06:16:30;98919.16;;;14.96;100.00
64616;BME280;51027;42.162;24.754;2023-04-25T06:18:56;98935.28;;;14.93;100.00
64616;BME280;51027;42.162;24.754;2023-04-25T06:21:21;98930.38;;;15.00;100.00
64616;BME280;51027;42.162;24.754;2023-04-25T06:23:47;98932.59;;;15.19;100.00
64616;BME280;51027;42.162;24.754;2023-04-25T06:26:12;98928.88;;;15.34;100.00
64616;BME280;51027;42.162;24.754;2023-04-25T06:28:38;98932.28;;;15.11;100.00
64616;BME280;51027;42.162;24.754;2023-04-25T06:31:03;98936.44;;;15.02;100.00
64616;BME280;51027;42.162;24.754;2023-04-25T06:33:28;98889.25;;;14.94;100.00
64616;BME280;51027;42.162;24.754;2023-04-25T06:35:54;98933.78;;;15.77;100.00
64616;BME280;51027;42.162;24.754;2023-04-25T06:38:19;98926.88;;;16.22;100.00
64616;BME280;51027;42.162;24.754;2023-04-25T06:40:45;98921.34;;;16.01;100.00
64616;BME280;51027;42.162;24.754;2023-04-25T06:43:10;98912.03;;;15.96;100.00
64616;BME280;51027;42.162;24.754;2023-04-25T06:45:36;98893.72;;;16.04;100.00
64616;BME280;51027;42.162;24.754;2023-04-25T06:48:01;98925.56;;;16.63;100.00
64616;BME280;51027;42.162;24.754;2023-04-25T06:50:27;98911.44;;;16.62;100.00
64616;BME280;51027;42.162;24.754;2023-04-25T06:52:52;98932.56;;;16.64;100.00
64616;BME280;51027;42.162;24.754;2023-04-25T06:55:18;98929.69;;;16.56;100.00
64616;BME280;51027;42.162;24.754;2023-04-25T06:57:43;98933.75;;;16.84;100.00
64616;BME280;51027;42.162;24.754;2023-04-25T07:00:09;98926.88;;;17.04;100.00
64616;BME280;51027;42.162;24.754;2023-04-25T07:02:35;98923.75;;;17.10;100.00
64616;BME280;51027;42.162;24.754;2023-04-25T07:05:02;98927.50;;;17.41;100.00
64616;BME280;51027;42.162;24.754;2023-04-25T07:07:30;98928.19;;;17.88;100.00
64616;BME280;51027;42.162;24.754;2023-04-25T07:09:56;98918.06;;;17.70;100.00
64616;BME280;51027;42.162;24.754;2023-04-25T07:12:21;98914.19;;;18.06;100.00
64616;BME280;51027;42.162;24.754;2023-04-25T07:14:46;98920.91;;;17.67;100.00
64616;BME280;51027;42.162;24.754;2023-04-25T07:17:12;98926.25;;;17.90;100.00
64616;BME280;51027;42.162;24.754;2023-04-25T07:19:37;98913.56;;;18.14;100.00
64616;BME280;51027;42.162;24.754;2023-04-25T07:22:05;98922.06;;;18.19;100.00
64616;BME280;51027;42.162;24.754;2023-04-25T07:24:31;98911.97;;;18.23;100.00
64616;BME280;51027;42.162;24.754;2023-04-25T07:26:57;98911.16;;;17.79;100.00
64616;BME280;51027;42.162;24.754;2023-04-25T07:29:23;98908.59;;;17.55;100.00
64616;BME280;51027;42.162;24.754;2023-04-25T07:31:48;98921.09;;;17.43;100.00
64616;BME280;51027;42.162;24.754;2023-04-25T07:34:14;98914.34;;;17.17;100.00
64616;BME280;51027;42.162;24.754;2023-04-25T07:36:39;98903.03;;;17.47;100.00
64616;BME280;51027;42.162;24.754;2023-04-25T07:39:05;98905.47;;;17.50;100.00
64616;BME280;51027;42.162;24.754;2023-04-25T07:41:30;98894.81;;;17.72;100.00
64616;BME280;51027;42.162;24.754;2023-04-25T07:43:56;98893.97;;;17.61;100.00
64616;BME280;51027;42.162;24.754;2023-04-25T07:46:21;98914.53;;;17.36;100.00
64616;BME280;51027;42.162;24.754;2023-04-25T07:48:47;98900.06;;;17.18;100.00
64616;BME280;51027;42.162;24.754;2023-04-25T07:51:12;98888.25;;;17.76;100.00
64616;BME280;51027;42.162;24.754;2023-04-25T07:53:37;98893.47;;;17.78;100.00
64616;BME280;51027;42.162;24.754;2023-04-25T07:56:03;98895.25;;;17.89;100.00
64616;BME280;51027;42.162;24.754;2023-04-25T07:58:29;98890.91;;;17.76;100.00
64616;BME280;51027;42.162;24.754;2023-04-25T08:00:54;98887.94;;;18.02;100.00
64616;BME280;51027;42.162;24.754;2023-04-25T08:03:19;98882.50;;;17.49;100.00
64616;BME280;51027;42.162;24.754;2023-04-25T08:05:46;98833.91;;;17.68;100.00
64616;BME280;51027;42.162;24.754;2023-04-25T08:08:11;98886.69;;;18.80;100.00
64616;BME280;51027;42.162;24.754;2023-04-25T08:10:37;98893.81;;;19.31;100.00
64616;BME280;51027;42.162;24.754;2023-04-25T08:13:02;98896.94;;;19.36;100.00
64616;BME280;51027;42.162;24.754;2023-04-25T08:15:28;98903.25;;;19.65;100.00
64616;BME280;51027;42.162;24.754;2023-04-25T08:17:53;98895.06;;;18.65;100.00
64616;BME280;51027;42.162;24.754;2023-04-25T08:20:18;98902.19;;;19.97;100.00
64616;BME280;51027;42.162;24.754;2023-04-25T08:22:44;98896.44;;;20.50;77.54
64616;BME280;51027;42.162;24.754;2023-04-25T08:25:09;98906.97;;;20.70;76.02
64616;BME280;51027;42.162;24.754;2023-04-25T08:27:35;98903.63;;;20.49;75.89
64616;BME280;51027;42.162;24.754;2023-04-25T08:30:02;98905.59;;;20.18;75.82
64616;BME280;51027;42.162;24.754;2023-04-25T08:32:28;98899.81;;;19.94;78.70
64616;BME280;51027;42.162;24.754;2023-04-25T08:34:53;98891.38;;;20.18;77.84
64616;BME280;51027;42.162;24.754;2023-04-25T08:37:20;98893.59;;;19.74;78.68
64616;BME280;51027;42.162;24.754;2023-04-25T08:39:46;98895.53;;;19.72;79.29
64616;BME280;51027;42.162;24.754;2023-04-25T08:42:14;98898.44;;;19.59;80.95
64616;BME280;51027;42.162;24.754;2023-04-25T08:44:40;98896.25;;;19.03;80.92
64616;BME280;51027;42.162;24.754;2023-04-25T08:47:06;98892.38;;;18.86;81.46
64616;BME280;51027;42.162;24.754;2023-04-25T08:49:32;98897.34;;;18.59;81.47
64616;BME280;51027;42.162;24.754;2023-04-25T08:52:00;98899.50;;;18.44;81.50
64616;BME280;51027;42.162;24.754;2023-04-25T08:54:27;98903.34;;;18.51;84.07
64616;BME280;51027;42.162;24.754;2023-04-25T08:56:54;98906.31;;;17.62;90.32
64616;BME280;51027;42.162;24.754;2023-04-25T08:59:21;98907.88;;;17.64;93.43
64616;BME280;51027;42.162;24.754;2023-04-25T09:01:49;98908.59;;;17.77;93.71
64616;BME280;51027;42.162;24.754;2023-04-25T09:04:15;98907.16;;;17.73;95.11
64616;BME280;51027;42.162;24.754;2023-04-25T09:06:40;98909.81;;;17.73;92.31
64616;BME280;51027;42.162;24.754;2023-04-25T09:09:08;98900.06;;;17.95;92.68
64616;BME280;51027;42.162;24.754;2023-04-25T09:11:35;98915.88;;;18.19;91.30
64616;BME280;51027;42.162;24.754;2023-04-25T09:14:18;98907.25;;;18.15;92.42
64616;BME280;51027;42.162;24.754;2023-04-25T09:19:30;98911.53;;;18.06;92.78
64616;BME280;51027;42.162;24.754;2023-04-25T09:21:57;98882.66;;;17.91;92.78
64616;BME280;51027;42.162;24.754;2023-04-25T09:26:58;98892.28;;;18.03;90.66
64616;BME280;51027;42.162;24.754;2023-04-25T09:29:31;98888.91;;;18.54;90.40
64616;BME280;51027;42.162;24.754;2023-04-25T09:32:22;98882.53;;;18.87;88.37
64616;BME280;51027;42.162;24.754;2023-04-25T09:34:49;98877.97;;;19.39;87.09
64616;BME280;51027;42.162;24.754;2023-04-25T09:39:48;98882.19;;;19.81;81.29
64616;BME280;51027;42.162;24.754;2023-04-25T09:42:16;98876.59;;;19.84;81.19
64616;BME280;51027;42.162;24.754;2023-04-25T09:44:46;98869.44;;;20.14;80.83
64616;BME280;51027;42.162;24.754;2023-04-25T09:47:15;98878.16;;;20.55;77.71
64616;BME280;51027;42.162;24.754;2023-04-25T09:49:43;98876.66;;;20.89;77.42
64616;BME280;51027;42.162;24.754;2023-04-25T09:52:13;98870.81;;;20.28;78.20
64616;BME280;51027;42.162;24.754;2023-04-25T09:54:40;98867.91;;;19.12;82.38
64616;BME280;51027;42.162;24.754;2023-04-25T09:57:14;98859.38;;;19.68;81.69
64616;BME280;51027;42.162;24.754;2023-04-25T09:59:43;98850.84;;;20.03;79.42
64616;BME280;51027;42.162;24.754;2023-04-25T10:02:10;98846.69;;;20.76;74.80
64616;BME280;51027;42.162;24.754;2023-04-25T10:04:37;98836.13;;;21.12;73.35
64616;BME280;51027;42.162;24.754;2023-04-25T10:07:05;98827.53;;;20.71;73.11
64616;BME280;51027;42.162;24.754;2023-04-25T10:09:32;98814.41;;;21.15;70.61
64616;BME280;51027;42.162;24.754;2023-04-25T10:12:01;98823.56;;;21.49;68.80
64616;BME280;51027;42.162;24.754;2023-04-25T10:14:29;98809.47;;;21.47;67.04
64616;BME280;51027;42.162;24.754;2023-04-25T10:16:57;98809.81;;;21.07;67.17
64616;BME280;51027;42.162;24.754;2023-04-25T10:19:23;98816.91;;;21.53;66.36
64616;BME280;51027;42.162;24.754;2023-04-25T10:24:21;98806.44;;;22.31;62.77
64616;BME280;51027;42.162;24.754;2023-04-25T10:26:47;98803.41;;;22.08;63.78
64616;BME280;51027;42.162;24.754;2023-04-25T10:29:22;98789.00;;;22.35;63.03
64616;BME280;51027;42.162;24.754;2023-04-25T10:31:48;98776.41;;;21.92;63.26
64616;BME280;51027;42.162;24.754;2023-04-25T10:34:16;98776.25;;;22.11;62.06
64616;BME280;51027;42.162;24.754;2023-04-25T10:36:41;98760.72;;;21.62;61.50
64616;BME280;51027;42.162;24.754;2023-04-25T10:39:08;98758.88;;;22.41;59.84
64616;BME280;51027;42.162;24.754;2023-04-25T10:41:47;98765.69;;;22.62;58.67
64616;BME280;51027;42.162;24.754;2023-04-25T10:44:14;98760.13;;;22.55;57.38
64616;BME280;51027;42.162;24.754;2023-04-25T10:46:39;98753.56;;;22.58;59.12
64616;BME280;51027;42.162;24.754;2023-04-25T10:49:08;98752.44;;;22.34;59.21
64616;BME280;51027;42.162;24.754;2023-04-25T10:51:34;98736.50;;;22.07;57.68
64616;BME280;51027;42.162;24.754;2023-04-25T10:54:05;98748.69;;;22.53;56.98
64616;BME280;51027;42.162;24.754;2023-04-25T10:56:32;98723.97;;;22.76;55.43
64616;BME280;51027;42.162;24.754;2023-04-25T10:59:18;98724.13;;;23.00;54.95
64616;BME280;51027;42.162;24.754;2023-04-25T11:01:48;98739.28;;;23.09;54.16
64616;BME280;51027;42.162;24.754;2023-04-25T11:09:23;98713.69;;;22.89;52.85
64616;BME280;51027;42.162;24.754;2023-04-25T11:11:57;98718.56;;;22.59;53.87
64616;BME280;51027;42.162;24.754;2023-04-25T11:14:26;98714.91;;;22.77;54.67
64616;BME280;51027;42.162;24.754;2023-04-25T11:16:56;98715.81;;;23.36;52.91
64616;BME280;51027;42.162;24.754;2023-04-25T11:19:23;98726.91;;;23.41;53.67
64616;BME280;51027;42.162;24.754;2023-04-25T11:22:01;98712.66;;;23.56;53.68
64616;BME280;51027;42.162;24.754;2023-04-25T11:24:32;98710.47;;;24.01;52.36
64616;BME280;51027;42.162;24.754;2023-04-25T11:27:04;98701.06;;;23.56;53.81
64616;BME280;51027;42.162;24.754;2023-04-25T11:29:32;98708.09;;;23.57;54.35
64616;BME280;51027;42.162;24.754;2023-04-25T11:31:58;98695.97;;;23.28;54.70
64616;BME280;51027;42.162;24.754;2023-04-25T11:34:25;98694.66;;;23.41;54.97
64616;BME280;51027;42.162;24.754;2023-04-25T11:36:51;98672.94;;;23.02;54.68
64616;BME280;51027;42.162;24.754;2023-04-25T11:39:18;98675.16;;;23.22;54.21
64616;BME280;51027;42.162;24.754;2023-04-25T11:41:44;98677.13;;;23.04;54.53
64616;BME280;51027;42.162;24.754;2023-04-25T11:44:09;98675.59;;;22.59;56.36
64616;BME280;51027;42.162;24.754;2023-04-25T11:46:35;98673.03;;;22.84;55.15
64616;BME280;51027;42.162;24.754;2023-04-25T11:49:01;98676.66;;;23.25;53.52
64616;BME280;51027;42.162;24.754;2023-04-25T11:51:27;98656.22;;;23.73;53.87
64616;BME280;51027;42.162;24.754;2023-04-25T11:53:52;98668.47;;;23.43;52.95
64616;BME280;51027;42.162;24.754;2023-04-25T11:56:18;98653.00;;;22.78;57.43
64616;BME280;51027;42.162;24.754;2023-04-25T11:59:05;98646.94;;;22.60;59.44
64616;BME280;51027;42.162;24.754;2023-04-25T12:01:35;98647.22;;;22.49;59.88
64616;BME280;51027;42.162;24.754;2023-04-25T12:04:34;98647.09;;;22.24;60.14
64616;BME280;51027;42.162;24.754;2023-04-25T12:06:59;98634.56;;;21.81;61.56
64616;BME280;51027;42.162;24.754;2023-04-25T12:09:30;98620.63;;;21.16;62.97
64616;BME280;51027;42.162;24.754;2023-04-25T12:11:58;98634.84;;;21.34;62.92
64616;BME280;51027;42.162;24.754;2023-04-25T12:14:26;98625.28;;;21.49;63.76
64616;BME280;51027;42.162;24.754;2023-04-25T12:16:54;98620.69;;;22.11;61.68
64616;BME280;51027;42.162;24.754;2023-04-25T12:19:20;98617.59;;;22.75;59.53
64616;BME280;51027;42.162;24.754;2023-04-25T12:21:46;98625.50;;;22.34;60.84
64616;BME280;51027;42.162;24.754;2023-04-25T12:24:23;98628.56;;;21.61;62.14
64616;BME280;51027;42.162;24.754;2023-04-25T12:27:05;98635.44;;;20.92;62.00
64616;BME280;51027;42.162;24.754;2023-04-25T12:29:33;98627.97;;;21.49;60.83
64616;BME280;51027;42.162;24.754;2023-04-25T12:31:59;98616.38;;;22.53;59.62
64616;BME280;51027;42.162;24.754;2023-04-25T12:34:25;98631.47;;;23.12;57.84
64616;BME280;51027;42.162;24.754;2023-04-25T12:36:51;98616.72;;;23.33;57.02
64616;BME280;51027;42.162;24.754;2023-04-25T12:39:18;98604.03;;;22.34;59.19
64616;BME280;51027;42.162;24.754;2023-04-25T12:41:45;98620.88;;;22.94;58.40
64616;BME280;51027;42.162;24.754;2023-04-25T12:44:12;98621.84;;;22.85;57.10
64616;BME280;51027;42.162;24.754;2023-04-25T12:46:37;98619.88;;;22.95;56.93
64616;BME280;51027;42.162;24.754;2023-04-25T12:49:04;98614.84;;;22.92;56.94
64616;BME280;51027;42.162;24.754;2023-04-25T12:51:30;98606.78;;;23.17;57.52
64616;BME280;51027;42.162;24.754;2023-04-25T12:53:58;98628.91;;;22.86;57.56
64616;BME280;51027;42.162;24.754;2023-04-25T12:56:23;98622.88;;;22.42;59.75